sensor_id;sensor_type;location;lat;lon;timestamp;pressure;altitude;pressure_sealevel;temperature;humidity
46534;BME280;32260;52.008;4.752;2023-05-02T00:01:26;102159.63;;;13.32;64.79
46534;BME280;32260;52.008;4.752;2023-05-02T00:03:52;102165.88;;;13.32;64.81
46534;BME280;32260;52.008;4.752;2023-05-02T00:06:19;102157.88;;;13.32;65.12
46534;BME280;32260;52.008;4.752;2023-05-02T00:08:45;102157.84;;;13.34;65.06
46534;BME280;32260;52.008;4.752;2023-05-02T00:11:11;102159.63;;;13.35;65.06
46534;BME280;32260;52.008;4.752;2023-05-02T00:13:37;102159.63;;;13.35;64.83
46534;BME280;32260;52.008;4.752;2023-05-02T00:16:04;102152.50;;;13.35;65.35
46534;BME280;32260;52.008;4.752;2023-05-02T00:18:30;102163.19;;;13.34;65.49
46534;BME280;32260;52.008;4.752;2023-05-02T00:20:56;102168.44;;;13.37;64.83
46534;BME280;32260;52.008;4.752;2023-05-02T00:23:22;102171.13;;;13.37;65.06
46534;BME280;32260;52.008;4.752;2023-05-02T00:25:48;102164.00;;;13.43;64.90
46534;BME280;32260;52.008;4.752;2023-05-02T00:28:15;102168.41;;;13.46;65.12
46534;BME280;32260;52.008;4.752;2023-05-02T00:30:44;102171.91;;;13.51;65.06
46534;BME280;32260;52.008;4.752;2023-05-02T00:33:11;102176.31;;;13.52;64.79
46534;BME280;32260;52.008;4.752;2023-05-02T00:35:38;102171.84;;;13.54;64.92
46534;BME280;32260;52.008;4.752;2023-05-02T00:38:04;102175.38;;;13.59;64.95
46534;BME280;32260;52.008;4.752;2023-05-02T00:40:31;102169.22;;;13.53;65.35
46534;BME280;32260;52.008;4.752;2023-05-02T00:42:57;102165.66;;;13.54;65.20
46534;BME280;32260;52.008;4.752;2023-05-02T00:45:23;102166.50;;;13.57;64.89
46534;BME280;32260;52.008;4.752;2023-05-02T00:47:49;102167.31;;;13.63;64.65
46534;BME280;32260;52.008;4.752;2023-05-02T00:50:16;102178.81;;;13.68;64.58
46534;BME280;32260;52.008;4.752;2023-05-02T00:52:43;102166.38;;;13.68;64.77
46534;BME280;32260;52.008;4.752;2023-05-02T00:55:09;102181.44;;;13.71;64.67
46534;BME280;32260;52.008;4.752;2023-05-02T00:57:35;102185.09;;;13.61;64.95
46534;BME280;32260;52.008;4.752;2023-05-02T01:00:01;102178.91;;;13.60;64.94
46534;BME280;32260;52.008;4.752;2023-05-02T01:05:14;102184.19;;;13.63;65.20
46534;BME280;32260;52.008;4.752;2023-05-02T01:13:21;102194.81;;;13.66;64.95
46534;BME280;32260;52.008;4.752;2023-05-02T01:15:49;102193.13;;;13.57;65.05
46534;BME280;32260;52.008;4.752;2023-05-02T01:18:20;102202.03;;;13.55;65.29
46534;BME280;32260;52.008;4.752;2023-05-02T01:20:51;102198.47;;;13.54;64.97
46534;BME280;32260;52.008;4.752;2023-05-02T01:24:25;102209.09;;;13.57;65.09
46534;BME280;32260;52.008;4.752;2023-05-02T01:28:59;102207.31;;;13.59;65.01
46534;BME280;32260;52.008;4.752;2023-05-02T01:31:28;102210.88;;;13.57;64.62
46534;BME280;32260;52.008;4.752;2023-05-02T01:33:56;102210.88;;;13.58;64.83
46534;BME280;32260;52.008;4.752;2023-05-02T01:36:25;102209.16;;;13.53;65.05
46534;BME280;32260;52.008;4.752;2023-05-02T01:38:54;102210.84;;;13.62;64.71
46534;BME280;32260;52.008;4.752;2023-05-02T01:41:21;102221.53;;;13.58;64.61
46534;BME280;32260;52.008;4.752;2023-05-02T01:43:50;102221.50;;;13.60;64.45
46534;BME280;32260;52.008;4.752;2023-05-02T01:46:17;102216.19;;;13.57;64.75
46534;BME280;32260;52.008;4.752;2023-05-02T01:48:46;102220.63;;;13.58;64.23
46534;BME280;32260;52.008;4.752;2023-05-02T01:51:15;102230.41;;;13.57;64.19
46534;BME280;32260;52.008;4.752;2023-05-02T01:53:45;102230.44;;;13.56;64.06
46534;BME280;32260;52.008;4.752;2023-05-02T01:56:13;102241.06;;;13.57;64.04
46534;BME280;32260;52.008;4.752;2023-05-02T01:58:43;102241.97;;;13.56;63.96
46534;BME280;32260;52.008;4.752;2023-05-02T02:01:11;102246.41;;;13.57;64.24
46534;BME280;32260;52.008;4.752;2023-05-02T02:03:38;102250.84;;;13.55;64.07
46534;BME280;32260;52.008;4.752;2023-05-02T02:06:04;102260.66;;;13.53;63.62
46534;BME280;32260;52.008;4.752;2023-05-02T02:08:31;102260.66;;;13.50;63.45
46534;BME280;32260;52.008;4.752;2023-05-02T02:11:01;102266.91;;;13.46;63.54
46534;BME280;32260;52.008;4.752;2023-05-02T02:13:38;102266.91;;;13.48;63.42
46534;BME280;32260;52.008;4.752;2023-05-02T02:16:06;102270.47;;;13.42;63.36
46534;BME280;32260;52.008;4.752;2023-05-02T02:18:36;102274.91;;;13.43;63.34
46534;BME280;32260;52.008;4.752;2023-05-02T02:21:06;102282.03;;;13.42;62.78
46534;BME280;32260;52.008;4.752;2023-05-02T02:23:37;102277.59;;;13.37;62.91
46534;BME280;32260;52.008;4.752;2023-05-02T02:26:05;102283.84;;;13.33;62.92
46534;BME280;32260;52.008;4.752;2023-05-02T02:28:32;102283.84;;;13.36;62.48
46534;BME280;32260;52.008;4.752;2023-05-02T02:30:59;102276.75;;;13.32;62.87
46534;BME280;32260;52.008;4.752;2023-05-02T02:33:28;102287.44;;;13.30;62.09
46534;BME280;32260;52.008;4.752;2023-05-02T02:36:14;102294.56;;;13.26;62.24
46534;BME280;32260;52.008;4.752;2023-05-02T02:38:49;102288.34;;;13.24;62.02
46534;BME280;32260;52.008;4.752;2023-05-02T02:41:26;102302.59;;;13.20;61.69
46534;BME280;32260;52.008;4.752;2023-05-02T02:44:06;102295.50;;;13.21;61.33
46534;BME280;32260;52.008;4.752;2023-05-02T02:49:47;102307.09;;;13.06;61.07
46534;BME280;32260;52.008;4.752;2023-05-02T02:55:52;102303.63;;;12.98;60.41
46534;BME280;32260;52.008;4.752;2023-05-02T03:00:55;102314.31;;;12.91;61.36
46534;BME280;32260;52.008;4.752;2023-05-02T03:03:22;102303.69;;;12.91;60.86
46534;BME280;32260;52.008;4.752;2023-05-02T03:05:54;102309.91;;;12.89;60.63
46534;BME280;32260;52.008;4.752;2023-05-02T03:08:21;102311.69;;;12.90;60.52
46534;BME280;32260;52.008;4.752;2023-05-02T03:10:48;102316.09;;;12.92;60.51
46534;BME280;32260;52.008;4.752;2023-05-02T03:13:14;102319.59;;;12.94;60.72
46534;BME280;32260;52.008;4.752;2023-05-02T03:18:18;102330.22;;;13.01;60.74
46534;BME280;32260;52.008;4.752;2023-05-02T03:20:44;102335.53;;;13.01;60.81
46534;BME280;32260;52.008;4.752;2023-05-02T03:23:10;102331.13;;;13.00;60.13
46534;BME280;32260;52.008;4.752;2023-05-02T03:25:37;102340.84;;;13.01;60.11
46534;BME280;32260;52.008;4.752;2023-05-02T03:28:03;102340.84;;;13.01;60.27
46534;BME280;32260;52.008;4.752;2023-05-02T03:30:30;102340.84;;;13.01;60.62
46534;BME280;32260;52.008;4.752;2023-05-02T03:32:56;102351.50;;;13.01;60.00
46534;BME280;32260;52.008;4.752;2023-05-02T03:35:22;102348.88;;;12.94;60.41
46534;BME280;32260;52.008;4.752;2023-05-02T03:37:48;102351.50;;;13.01;60.13
46534;BME280;32260;52.008;4.752;2023-05-02T03:40:14;102355.94;;;13.02;59.91
46534;BME280;32260;52.008;4.752;2023-05-02T03:42:41;102355.06;;;13.01;60.38
46534;BME280;32260;52.008;4.752;2023-05-02T03:45:08;102358.63;;;12.99;60.37
46534;BME280;32260;52.008;4.752;2023-05-02T03:47:35;102359.53;;;12.96;60.25
46534;BME280;32260;52.008;4.752;2023-05-02T03:50:01;102377.28;;;12.92;60.20
46534;BME280;32260;52.008;4.752;2023-05-02T03:52:28;102374.63;;;12.92;59.84
46534;BME280;32260;52.008;4.752;2023-05-02T03:54:54;102375.50;;;12.91;59.64
46534;BME280;32260;52.008;4.752;2023-05-02T03:57:20;102368.41;;;12.92;60.03
46534;BME280;32260;52.008;4.752;2023-05-02T03:59:46;102374.63;;;12.89;60.03
46534;BME280;32260;52.008;4.752;2023-05-02T04:02:13;102388.81;;;12.88;59.57
46534;BME280;32260;52.008;4.752;2023-05-02T04:04:39;102383.50;;;12.85;59.37
46534;BME280;32260;52.008;4.752;2023-05-02T04:07:05;102395.94;;;12.83;59.71
46534;BME280;32260;52.008;4.752;2023-05-02T04:09:33;102393.28;;;12.80;59.56
46534;BME280;32260;52.008;4.752;2023-05-02T04:11:59;102403.94;;;12.78;58.94
46534;BME280;32260;52.008;4.752;2023-05-02T04:14:26;102395.94;;;12.80;59.31
46534;BME280;32260;52.008;4.752;2023-05-02T04:16:52;102399.47;;;12.82;59.05
46534;BME280;32260;52.008;4.752;2023-05-02T04:19:18;102397.72;;;12.83;59.38
46534;BME280;32260;52.008;4.752;2023-05-02T04:21:45;102410.09;;;12.82;59.42
46534;BME280;32260;52.008;4.752;2023-05-02T04:24:12;102409.22;;;12.83;59.41
46534;BME280;32260;52.008;4.752;2023-05-02T04:26:38;102397.72;;;12.83;59.35
46534;BME280;32260;52.008;4.752;2023-05-02T04:29:04;102407.44;;;12.85;59.15
46534;BME280;32260;52.008;4.752;2023-05-02T04:31:31;102413.69;;;12.83;58.77
46534;BME280;32260;52.008;4.752;2023-05-02T04:33:57;102411.91;;;12.77;58.38
46534;BME280;32260;52.008;4.752;2023-05-02T04:36:24;102420.78;;;12.76;58.89
46534;BME280;32260;52.008;4.752;2023-05-02T04:38:51;102426.13;;;12.73;58.97
46534;BME280;32260;52.008;4.752;2023-05-02T04:41:17;102435.00;;;12.75;58.66
46534;BME280;32260;52.008;4.752;2023-05-02T04:43:43;102435.00;;;12.75;58.67
46534;BME280;32260;52.008;4.752;2023-05-02T04:46:09;102437.66;;;12.75;58.67
46534;BME280;32260;52.008;4.752;2023-05-02T04:48:36;102438.50;;;12.77;58.63
46534;BME280;32260;52.008;4.752;2023-05-02T04:51:07;102448.28;;;12.76;58.13
46534;BME280;32260;52.008;4.752;2023-05-02T04:53:34;102452.69;;;12.76;58.20
46534;BME280;32260;52.008;4.752;2023-05-02T04:56:00;102460.69;;;12.79;58.35
46534;BME280;32260;52.008;4.752;2023-05-02T04:58:27;102461.53;;;12.79;57.95
46534;BME280;32260;52.008;4.752;2023-05-02T05:00:53;102471.31;;;12.81;58.11
46534;BME280;32260;52.008;4.752;2023-05-02T05:03:20;102463.31;;;12.82;58.25
46534;BME280;32260;52.008;4.752;2023-05-02T05:05:46;102470.41;;;12.83;57.99
46534;BME280;32260;52.008;4.752;2023-05-02T05:08:12;102472.16;;;12.86;58.13
46534;BME280;32260;52.008;4.752;2023-05-02T05:10:38;102473.94;;;12.85;57.86
46534;BME280;32260;52.008;4.752;2023-05-02T05:13:05;102479.25;;;12.82;57.99
46534;BME280;32260;52.008;4.752;2023-05-02T05:15:31;102479.25;;;12.82;58.03
46534;BME280;32260;52.008;4.752;2023-05-02T05:17:57;102469.53;;;12.83;58.02
46534;BME280;32260;52.008;4.752;2023-05-02T05:20:23;102480.16;;;12.83;58.31
46534;BME280;32260;52.008;4.752;2023-05-02T05:22:50;102477.50;;;12.84;57.54
46534;BME280;32260;52.008;4.752;2023-05-02T05:25:16;102473.06;;;12.92;57.67
46534;BME280;32260;52.008;4.752;2023-05-02T05:27:42;102487.19;;;12.99;57.55
46534;BME280;32260;52.008;4.752;2023-05-02T05:30:08;102485.44;;;12.92;57.59
46534;BME280;32260;52.008;4.752;2023-05-02T05:32:35;102496.09;;;12.90;57.32
46534;BME280;32260;52.008;4.752;2023-05-02T05:35:01;102498.78;;;12.93;57.22
46534;BME280;32260;52.008;4.752;2023-05-02T05:37:28;102500.50;;;12.94;57.45
46534;BME280;32260;52.008;4.752;2023-05-02T05:39:54;102505.84;;;12.93;57.19
46534;BME280;32260;52.008;4.752;2023-05-02T05:42:20;102510.28;;;12.95;57.31
46534;BME280;32260;52.008;4.752;2023-05-02T05:44:46;102518.25;;;12.95;57.00
46534;BME280;32260;52.008;4.752;2023-05-02T05:47:17;102522.69;;;12.97;57.36
46534;BME280;32260;52.008;4.752;2023-05-02T05:49:43;102518.22;;;13.03;57.10
46534;BME280;32260;52.008;4.752;2023-05-02T05:52:09;102529.75;;;13.08;57.40
46534;BME280;32260;52.008;4.752;2023-05-02T05:54:35;102532.38;;;13.13;56.95
46534;BME280;32260;52.008;4.752;2023-05-02T05:57:02;102533.25;;;13.17;57.23
46534;BME280;32260;52.008;4.752;2023-05-02T05:59:29;102538.56;;;13.18;56.54
46534;BME280;32260;52.008;4.752;2023-05-02T06:01:55;102536.81;;;13.23;57.08
46534;BME280;32260;52.008;4.752;2023-05-02T06:04:22;102550.97;;;13.30;56.71
46534;BME280;32260;52.008;4.752;2023-05-02T06:06:51;102551.84;;;13.40;56.66
46534;BME280;32260;52.008;4.752;2023-05-02T06:09:19;102555.38;;;13.43;56.71
46534;BME280;32260;52.008;4.752;2023-05-02T06:11:45;102553.59;;;13.44;56.14
46534;BME280;32260;52.008;4.752;2023-05-02T06:14:11;102558.91;;;13.44;56.00
46534;BME280;32260;52.008;4.752;2023-05-02T06:16:37;102558.91;;;13.44;56.17
46534;BME280;32260;52.008;4.752;2023-05-02T06:19:03;102566.00;;;13.45;55.67
46534;BME280;32260;52.008;4.752;2023-05-02T06:21:29;102565.13;;;13.46;55.62
46534;BME280;32260;52.008;4.752;2023-05-02T06:23:56;102573.09;;;13.49;55.49
46534;BME280;32260;52.008;4.752;2023-05-02T06:26:22;102572.19;;;13.50;55.61
46534;BME280;32260;52.008;4.752;2023-05-02T06:28:48;102580.19;;;13.53;55.57
46534;BME280;32260;52.008;4.752;2023-05-02T06:31:14;102576.63;;;13.53;54.63
46534;BME280;32260;52.008;4.752;2023-05-02T06:36:44;102590.84;;;13.53;54.72
46534;BME280;32260;52.008;4.752;2023-05-02T06:39:16;102592.63;;;13.51;55.26
46534;BME280;32260;52.008;4.752;2023-05-02T06:43:16;102601.50;;;13.50;55.48
46534;BME280;32260;52.008;4.752;2023-05-02T06:45:13;102609.47;;;13.55;54.46
46534;BME280;32260;52.008;4.752;2023-05-02T06:47:42;102610.38;;;13.52;55.18
46534;BME280;32260;52.008;4.752;2023-05-02T06:50:47;102616.56;;;13.56;54.73
46534;BME280;32260;52.008;4.752;2023-05-02T06:53:24;102623.69;;;13.49;55.14
46534;BME280;32260;52.008;4.752;2023-05-02T06:55:51;102625.44;;;13.52;55.06
46534;BME280;32260;52.008;4.752;2023-05-02T06:58:18;102622.81;;;13.50;54.30
46534;BME280;32260;52.008;4.752;2023-05-02T07:00:53;102626.34;;;13.52;53.75
46534;BME280;32260;52.008;4.752;2023-05-02T07:03:37;102631.66;;;13.55;53.91
46534;BME280;32260;52.008;4.752;2023-05-02T07:06:08;102637.88;;;13.62;54.69
46534;BME280;32260;52.008;4.752;2023-05-02T07:08:42;102631.63;;;13.66;53.95
46534;BME280;32260;52.008;4.752;2023-05-02T07:11:57;102637.78;;;13.78;53.98
46534;BME280;32260;52.008;4.752;2023-05-02T07:14:30;102642.22;;;13.83;54.32
46534;BME280;32260;52.008;4.752;2023-05-02T07:16:59;102647.50;;;13.86;53.43
46534;BME280;32260;52.008;4.752;2023-05-02T07:19:37;102650.13;;;13.93;53.57
46534;BME280;32260;52.008;4.752;2023-05-02T07:22:05;102660.84;;;13.89;52.93
46534;BME280;32260;52.008;4.752;2023-05-02T07:24:45;102658.16;;;13.89;53.52
46534;BME280;32260;52.008;4.752;2023-05-02T07:27:37;102656.38;;;13.88;53.38
46534;BME280;32260;52.008;4.752;2023-05-02T07:30:22;102657.28;;;13.86;53.23
46534;BME280;32260;52.008;4.752;2023-05-02T07:33:07;102659.00;;;13.96;53.02
46534;BME280;32260;52.008;4.752;2023-05-02T07:38:55;102667.00;;;14.01;52.78
46534;BME280;32260;52.008;4.752;2023-05-02T07:41:44;102670.47;;;14.12;52.83
46534;BME280;32260;52.008;4.752;2023-05-02T07:44:15;102671.38;;;14.11;52.75
46534;BME280;32260;52.008;4.752;2023-05-02T07:46:59;102665.13;;;14.15;52.32
46534;BME280;32260;52.008;4.752;2023-05-02T07:49:32;102674.91;;;14.10;51.64
46534;BME280;32260;52.008;4.752;2023-05-02T07:52:16;102682.03;;;14.10;52.08
46534;BME280;32260;52.008;4.752;2023-05-02T07:54:42;102679.41;;;14.03;52.24
46534;BME280;32260;52.008;4.752;2023-05-02T07:57:17;102688.25;;;14.13;52.05
46534;BME280;32260;52.008;4.752;2023-05-02T07:59:45;102682.91;;;14.12;51.60
46534;BME280;32260;52.008;4.752;2023-05-02T08:02:23;102679.31;;;14.19;50.72
46534;BME280;32260;52.008;4.752;2023-05-02T08:05:07;102684.69;;;14.16;50.77
46534;BME280;32260;52.008;4.752;2023-05-02T08:07:47;102691.81;;;14.12;50.57
46534;BME280;32260;52.008;4.752;2023-05-02T08:11:35;102697.06;;;14.26;50.75
46534;BME280;32260;52.008;4.752;2023-05-02T08:13:51;102693.34;;;14.49;50.14
46534;BME280;32260;52.008;4.752;2023-05-02T08:16:18;102694.25;;;14.51;49.84
46534;BME280;32260;52.008;4.752;2023-05-02T08:18:44;102691.53;;;14.55;49.08
46534;BME280;32260;52.008;4.752;2023-05-02T08:21:18;102699.50;;;14.65;48.51
46534;BME280;32260;52.008;4.752;2023-05-02T08:23:46;102698.56;;;14.69;48.64
46534;BME280;32260;52.008;4.752;2023-05-02T08:26:13;102691.50;;;14.68;47.25
46534;BME280;32260;52.008;4.752;2023-05-02T08:28:40;102704.75;;;14.74;47.75
46534;BME280;32260;52.008;4.752;2023-05-02T08:31:09;102711.00;;;14.73;47.90
46534;BME280;32260;52.008;4.752;2023-05-02T08:33:37;102708.38;;;14.62;47.21
46534;BME280;32260;52.008;4.752;2023-05-02T08:36:10;102718.19;;;14.59;47.47
46534;BME280;32260;52.008;4.752;2023-05-02T08:38:46;102720.00;;;14.53;47.46
46534;BME280;32260;52.008;4.752;2023-05-02T08:41:14;102728.94;;;14.42;47.11
46534;BME280;32260;52.008;4.752;2023-05-02T08:43:45;102731.66;;;14.37;46.80
46534;BME280;32260;52.008;4.752;2023-05-02T08:46:12;102737.94;;;14.25;46.63
46534;BME280;32260;52.008;4.752;2023-05-02T08:48:43;102736.19;;;14.16;46.89
46534;BME280;32260;52.008;4.752;2023-05-02T08:51:17;102736.22;;;14.10;47.01
46534;BME280;32260;52.008;4.752;2023-05-02T08:53:44;102738.00;;;14.11;45.84
46534;BME280;32260;52.008;4.752;2023-05-02T08:56:11;102739.78;;;14.17;46.17
46534;BME280;32260;52.008;4.752;2023-05-02T08:58:40;102729.06;;;14.24;46.24
46534;BME280;32260;52.008;4.752;2023-05-02T09:01:23;102732.56;;;14.33;45.91
46534;BME280;32260;52.008;4.752;2023-05-02T09:04:28;102725.41;;;14.41;45.48
46534;BME280;32260;52.008;4.752;2023-05-02T09:07:04;102738.72;;;14.44;45.60
46534;BME280;32260;52.008;4.752;2023-05-02T09:09:36;102744.94;;;14.46;45.15
46534;BME280;32260;52.008;4.752;2023-05-02T09:12:03;102744.03;;;14.47;43.90
46534;BME280;32260;52.008;4.752;2023-05-02T09:14:34;102759.09;;;14.57;44.37
46534;BME280;32260;52.008;4.752;2023-05-02T09:17:00;102750.19;;;14.68;44.95
46534;BME280;32260;52.008;4.752;2023-05-02T09:19:27;102748.31;;;14.79;44.52
46534;BME280;32260;52.008;4.752;2023-05-02T09:22:00;102751.75;;;14.97;44.67
46534;BME280;32260;52.008;4.752;2023-05-02T09:24:26;102754.31;;;15.09;44.90
46534;BME280;32260;52.008;4.752;2023-05-02T09:27:01;102751.44;;;15.34;44.32
46534;BME280;32260;52.008;4.752;2023-05-02T09:29:31;102748.53;;;15.56;44.31
46534;BME280;32260;52.008;4.752;2023-05-02T09:32:04;102750.06;;;15.81;43.92
46534;BME280;32260;52.008;4.752;2023-05-02T09:34:33;102758.78;;;15.97;43.21
46534;BME280;32260;52.008;4.752;2023-05-02T09:37:02;102755.22;;;16.00;42.76
46534;BME280;32260;52.008;4.752;2023-05-02T09:39:36;102758.59;;;16.14;43.11
46534;BME280;32260;52.008;4.752;2023-05-02T09:42:02;102756.72;;;16.23;43.29
46534;BME280;32260;52.008;4.752;2023-05-02T09:44:36;102764.50;;;16.38;42.54
46534;BME280;32260;52.008;4.752;2023-05-02T09:47:03;102768.00;;;16.43;42.63
46534;BME280;32260;52.008;4.752;2023-05-02T09:49:47;102761.69;;;16.49;42.47
46534;BME280;32260;52.008;4.752;2023-05-02T09:52:37;102767.00;;;16.54;42.56
46534;BME280;32260;52.008;4.752;2023-05-02T09:55:20;102759.59;;;16.71;41.36
46534;BME280;32260;52.008;4.752;2023-05-02T09:57:48;102768.53;;;16.70;40.69
46534;BME280;32260;52.008;4.752;2023-05-02T10:00:18;102776.69;;;16.62;40.92
46534;BME280;32260;52.008;4.752;2023-05-02T10:02:46;102774.19;;;16.48;41.42
46534;BME280;32260;52.008;4.752;2023-05-02T10:05:15;102771.50;;;16.48;41.49
46534;BME280;32260;52.008;4.752;2023-05-02T10:07:43;102764.31;;;16.54;41.46
46534;BME280;32260;52.008;4.752;2023-05-02T10:10:16;102772.09;;;16.71;41.15
46534;BME280;32260;52.008;4.752;2023-05-02T10:12:42;102756.78;;;16.80;40.15
46534;BME280;32260;52.008;4.752;2023-05-02T10:15:12;102766.50;;;16.85;40.28
46534;BME280;32260;52.008;4.752;2023-05-02T10:17:43;102775.53;;;16.79;39.62
46534;BME280;32260;52.008;4.752;2023-05-02T10:20:17;102772.75;;;16.85;39.41
46534;BME280;32260;52.008;4.752;2023-05-02T10:22:49;102778.16;;;16.84;39.39
46534;BME280;32260;52.008;4.752;2023-05-02T10:25:15;102781.09;;;16.65;39.19
46534;BME280;32260;52.008;4.752;2023-05-02T10:27:42;102769.75;;;16.46;39.42
46534;BME280;32260;52.008;4.752;2023-05-02T10:30:09;102783.44;;;16.24;39.52
46534;BME280;32260;52.008;4.752;2023-05-02T10:32:36;102784.50;;;16.09;40.33
46534;BME280;32260;52.008;4.752;2023-05-02T10:35:04;102787.16;;;16.11;40.59
46534;BME280;32260;52.008;4.752;2023-05-02T10:37:32;102782.56;;;16.24;40.09
46534;BME280;32260;52.008;4.752;2023-05-02T10:39:59;102774.31;;;16.39;40.01
46534;BME280;32260;52.008;4.752;2023-05-02T10:42:26;102788.41;;;16.54;40.08
46534;BME280;32260;52.008;4.752;2023-05-02T10:44:53;102784.63;;;16.67;39.64
46534;BME280;32260;52.008;4.752;2023-05-02T10:47:21;102781.69;;;16.84;39.52
46534;BME280;32260;52.008;4.752;2023-05-02T10:49:52;102785.97;;;16.99;38.04
46534;BME280;32260;52.008;4.752;2023-05-02T10:52:39;102784.78;;;17.16;38.96
46534;BME280;32260;52.008;4.752;2023-05-02T10:55:22;102775.72;;;17.24;40.24
46534;BME280;32260;52.008;4.752;2023-05-02T11:00:40;102776.34;;;17.40;40.39
46534;BME280;32260;52.008;4.752;2023-05-02T11:03:06;102779.94;;;17.39;40.18
46534;BME280;32260;52.008;4.752;2023-05-02T11:06:08;102787.84;;;17.45;39.62
46534;BME280;32260;52.008;4.752;2023-05-02T11:08:34;102787.84;;;17.45;40.13
46534;BME280;32260;52.008;4.752;2023-05-02T11:11:53;102785.75;;;17.63;39.89
46534;BME280;32260;52.008;4.752;2023-05-02T11:14:08;102791.00;;;17.71;39.74
46534;BME280;32260;52.008;4.752;2023-05-02T11:24:57;102797.25;;;18.17;38.95
46534;BME280;32260;52.008;4.752;2023-05-02T11:30:08;102792.19;;;18.45;38.08
46534;BME280;32260;52.008;4.752;2023-05-02T11:35:27;102792.75;;;18.59;37.33
46534;BME280;32260;52.008;4.752;2023-05-02T11:37:58;102800.69;;;18.66;36.87
46534;BME280;32260;52.008;4.752;2023-05-02T11:40:26;102790.81;;;18.66;36.15
46534;BME280;32260;52.008;4.752;2023-05-02T11:42:54;102790.91;;;18.62;36.81
46534;BME280;32260;52.008;4.752;2023-05-02T11:45:21;102802.50;;;18.64;35.86
46534;BME280;32260;52.008;4.752;2023-05-02T11:47:49;102807.78;;;18.68;35.95
46534;BME280;32260;52.008;4.752;2023-05-02T11:50:16;102803.22;;;18.70;35.86
46534;BME280;32260;52.008;4.752;2023-05-02T11:52:44;102807.59;;;18.76;35.60
46534;BME280;32260;52.008;4.752;2023-05-02T11:55:12;102806.59;;;18.80;35.97
46534;BME280;32260;52.008;4.752;2023-05-02T11:57:39;102817.38;;;18.79;35.19
46534;BME280;32260;52.008;4.752;2023-05-02T12:00:06;102817.34;;;18.80;35.80
46534;BME280;32260;52.008;4.752;2023-05-02T12:02:37;102819.06;;;18.83;35.27
46534;BME280;32260;52.008;4.752;2023-05-02T12:05:04;102820.97;;;18.78;34.54
46534;BME280;32260;52.008;4.752;2023-05-02T12:10:14;102824.19;;;18.95;34.90
46534;BME280;32260;52.008;4.752;2023-05-02T12:12:44;102829.34;;;19.04;33.53
46534;BME280;32260;52.008;4.752;2023-05-02T12:15:11;102836.59;;;19.01;34.41
46534;BME280;32260;52.008;4.752;2023-05-02T12:17:40;102830.63;;;18.86;33.21
46534;BME280;32260;52.008;4.752;2023-05-02T12:20:08;102828.75;;;18.90;34.51
46534;BME280;32260;52.008;4.752;2023-05-02T12:22:35;102826.88;;;18.95;34.54
46534;BME280;32260;52.008;4.752;2023-05-02T12:25:01;102834.72;;;19.04;33.51
46534;BME280;32260;52.008;4.752;2023-05-02T12:27:29;102834.63;;;19.09;33.91
46534;BME280;32260;52.008;4.752;2023-05-02T12:29:55;102831.34;;;18.96;33.98
46534;BME280;32260;52.008;4.752;2023-05-02T12:32:29;102837.03;;;18.81;33.99
46534;BME280;32260;52.008;4.752;2023-05-02T12:34:56;102834.22;;;18.87;33.40
46534;BME280;32260;52.008;4.752;2023-05-02T12:37:23;102841.38;;;18.86;34.08
46534;BME280;32260;52.008;4.752;2023-05-02T12:39:49;102842.19;;;18.90;33.85
46534;BME280;32260;52.008;4.752;2023-05-02T12:42:19;102837.63;;;18.95;33.88
46534;BME280;32260;52.008;4.752;2023-05-02T12:44:47;102847.09;;;19.12;34.09
46534;BME280;32260;52.008;4.752;2023-05-02T12:47:15;102843.13;;;19.28;34.04
46534;BME280;32260;52.008;4.752;2023-05-02T12:52:47;102847.22;;;19.43;32.11
46534;BME280;32260;52.008;4.752;2023-05-02T12:55:17;102848.94;;;19.46;33.36
46534;BME280;32260;52.008;4.752;2023-05-02T12:57:44;102843.47;;;19.50;33.29
46534;BME280;32260;52.008;4.752;2023-05-02T13:00:11;102851.38;;;19.56;32.27
46534;BME280;32260;52.008;4.752;2023-05-02T13:02:37;102853.25;;;19.53;33.29
46534;BME280;32260;52.008;4.752;2023-05-02T13:05:14;102855.09;;;19.51;33.72
46534;BME280;32260;52.008;4.752;2023-05-02T13:07:40;102845.13;;;19.54;32.39
46534;BME280;32260;52.008;4.752;2023-05-02T13:10:06;102853.59;;;19.73;33.21
46534;BME280;32260;52.008;4.752;2023-05-02T13:12:32;102848.75;;;19.88;32.86
46534;BME280;32260;52.008;4.752;2023-05-02T13:15:03;102850.53;;;19.89;32.21
46534;BME280;32260;52.008;4.752;2023-05-02T13:17:29;102856.91;;;19.85;32.75
46534;BME280;32260;52.008;4.752;2023-05-02T13:19:55;102858.97;;;19.73;33.18
46534;BME280;32260;52.008;4.752;2023-05-02T13:22:22;102863.59;;;19.68;32.80
46534;BME280;32260;52.008;4.752;2023-05-02T13:24:48;102858.16;;;19.71;32.50
46534;BME280;32260;52.008;4.752;2023-05-02T13:27:14;102856.22;;;19.77;32.30
46534;BME280;32260;52.008;4.752;2023-05-02T13:29:43;102852.50;;;19.81;32.75
46534;BME280;32260;52.008;4.752;2023-05-02T13:32:10;102861.28;;;19.89;32.20
46534;BME280;32260;52.008;4.752;2023-05-02T13:34:36;102858.38;;;19.97;32.06
46534;BME280;32260;52.008;4.752;2023-05-02T13:37:02;102854.56;;;20.06;31.62
46534;BME280;32260;52.008;4.752;2023-05-02T13:39:29;102861.63;;;20.10;31.61
46534;BME280;32260;52.008;4.752;2023-05-02T13:41:55;102867.22;;;20.02;30.46
46534;BME280;32260;52.008;4.752;2023-05-02T13:44:21;102861.94;;;19.97;31.10
46534;BME280;32260;52.008;4.752;2023-05-02T13:46:47;102860.97;;;20.00;31.19
46534;BME280;32260;52.008;4.752;2023-05-02T13:49:13;102867.84;;;20.12;31.20
46534;BME280;32260;52.008;4.752;2023-05-02T13:51:39;102873.06;;;20.18;30.21
46534;BME280;32260;52.008;4.752;2023-05-02T13:54:05;102863.88;;;20.25;31.34
46534;BME280;32260;52.008;4.752;2023-05-02T13:56:31;102872.94;;;20.23;31.51